sensor_id;sensor_type;location;lat;lon;timestamp;temperature;humidity
7814;DHT22;3952;48.364;16.022;2023-04-25T00:00:08;10.40;99.90
7814;DHT22;3952;48.364;16.022;2023-04-25T00:02:36;10.40;99.90
7814;DHT22;3952;48.364;16.022;2023-04-25T00:05:03;10.40;99.90
7814;DHT22;3952;48.364;16.022;2023-04-25T00:07:30;10.30;99.90
7814;DHT22;3952;48.364;16.022;2023-04-25T00:09:59;10.30;99.90
7814;DHT22;3952;48.364;16.022;2023-04-25T00:12:26;10.30;99.90
7814;DHT22;3952;48.364;16.022;2023-04-25T00:14:54;10.20;99.90
7814;DHT22;3952;48.364;16.022;2023-04-25T00:17:22;10.20;99.90
7814;DHT22;3952;48.364;16.022;2023-04-25T00:19:50;10.20;99.90
7814;DHT22;3952;48.364;16.022;2023-04-25T00:22:18;10.10;99.90
7814;DHT22;3952;48.364;16.022;2023-04-25T00:24:45;10.10;99.90
7814;DHT22;3952;48.364;16.022;2023-04-25T00:27:14;10.10;99.90
7814;DHT22;3952;48.364;16.022;2023-04-25T00:29:41;10.00;99.90
7814;DHT22;3952;48.364;16.022;2023-04-25T00:32:09;10.00;99.90
7814;DHT22;3952;48.364;16.022;2023-04-25T00:34:36;10.00;99.90
7814;DHT22;3952;48.364;16.022;2023-04-25T00:37:03;10.00;99.90
7814;DHT22;3952;48.364;16.022;2023-04-25T00:39:30;10.00;99.90
7814;DHT22;3952;48.364;16.022;2023-04-25T00:41:58;10.00;99.90
7814;DHT22;3952;48.364;16.022;2023-04-25T00:44:27;9.90;99.90
7814;DHT22;3952;48.364;16.022;2023-04-25T00:46:56;10.00;99.90
7814;DHT22;3952;48.364;16.022;2023-04-25T00:49:24;9.90;99.90
7814;DHT22;3952;48.364;16.022;2023-04-25T00:51:51;9.90;99.90
7814;DHT22;3952;48.364;16.022;2023-04-25T00:54:18;9.90;99.90
7814;DHT22;3952;48.364;16.022;2023-04-25T00:56:45;9.80;99.90
7814;DHT22;3952;48.364;16.022;2023-04-25T00:59:14;9.80;99.90
7814;DHT22;3952;48.364;16.022;2023-04-25T01:01:43;9.80;99.90
7814;DHT22;3952;48.364;16.022;2023-04-25T01:04:10;9.80;99.90
7814;DHT22;3952;48.364;16.022;2023-04-25T01:06:37;9.80;99.90
7814;DHT22;3952;48.364;16.022;2023-04-25T01:09:05;9.80;99.90
7814;DHT22;3952;48.364;16.022;2023-04-25T01:11:32;9.80;99.90
7814;DHT22;3952;48.364;16.022;2023-04-25T01:13:59;9.80;99.90
7814;DHT22;3952;48.364;16.022;2023-04-25T01:16:27;9.80;99.90
7814;DHT22;3952;48.364;16.022;2023-04-25T01:18:56;9.70;99.90
7814;DHT22;3952;48.364;16.022;2023-04-25T01:21:25;9.70;99.90
7814;DHT22;3952;48.364;16.022;2023-04-25T01:23:54;9.70;99.90
7814;DHT22;3952;48.364;16.022;2023-04-25T01:26:21;9.70;99.90
7814;DHT22;3952;48.364;16.022;2023-04-25T01:28:50;9.70;99.90
7814;DHT22;3952;48.364;16.022;2023-04-25T01:31:18;9.70;99.90
7814;DHT22;3952;48.364;16.022;2023-04-25T01:33:46;9.70;99.90
7814;DHT22;3952;48.364;16.022;2023-04-25T01:36:13;9.70;99.90
7814;DHT22;3952;48.364;16.022;2023-04-25T01:38:43;9.70;99.90
7814;DHT22;3952;48.364;16.022;2023-04-25T01:41:12;9.60;99.90
7814;DHT22;3952;48.364;16.022;2023-04-25T01:43:39;9.70;99.90
7814;DHT22;3952;48.364;16.022;2023-04-25T01:46:07;9.70;99.90
7814;DHT22;3952;48.364;16.022;2023-04-25T01:48:34;9.70;99.90
7814;DHT22;3952;48.364;16.022;2023-04-25T01:51:01;9.70;99.90
7814;DHT22;3952;48.364;16.022;2023-04-25T01:53:29;9.70;99.90
7814;DHT22;3952;48.364;16.022;2023-04-25T01:55:57;9.70;99.90
7814;DHT22;3952;48.364;16.022;2023-04-25T01:58:25;9.30;99.90
7814;DHT22;3952;48.364;16.022;2023-04-25T02:00:52;9.60;99.90
7814;DHT22;3952;48.364;16.022;2023-04-25T02:03:19;9.60;99.90
7814;DHT22;3952;48.364;16.022;2023-04-25T02:05:46;9.60;99.90
7814;DHT22;3952;48.364;16.022;2023-04-25T02:08:13;9.60;99.90
7814;DHT22;3952;48.364;16.022;2023-04-25T02:10:41;9.60;99.90
7814;DHT22;3952;48.364;16.022;2023-04-25T02:13:09;9.60;99.90
7814;DHT22;3952;48.364;16.022;2023-04-25T02:15:36;9.60;99.90
7814;DHT22;3952;48.364;16.022;2023-04-25T02:18:04;9.60;99.90
7814;DHT22;3952;48.364;16.022;2023-04-25T02:20:32;9.60;99.90
7814;DHT22;3952;48.364;16.022;2023-04-25T02:22:59;9.60;99.90
7814;DHT22;3952;48.364;16.022;2023-04-25T02:25:26;9.60;99.90
7814;DHT22;3952;48.364;16.022;2023-04-25T02:27:54;9.50;99.90
7814;DHT22;3952;48.364;16.022;2023-04-25T02:30:22;9.50;99.90
7814;DHT22;3952;48.364;16.022;2023-04-25T02:32:49;9.50;99.90
7814;DHT22;3952;48.364;16.022;2023-04-25T02:35:17;9.50;99.90
7814;DHT22;3952;48.364;16.022;2023-04-25T02:37:44;9.50;99.90
7814;DHT22;3952;48.364;16.022;2023-04-25T02:40:11;9.50;99.90
7814;DHT22;3952;48.364;16.022;2023-04-25T02:42:39;9.40;99.90
7814;DHT22;3952;48.364;16.022;2023-04-25T02:45:07;9.40;99.90
7814;DHT22;3952;48.364;16.022;2023-04-25T02:47:36;9.40;99.90
7814;DHT22;3952;48.364;16.022;2023-04-25T02:50:03;9.40;99.90
7814;DHT22;3952;48.364;16.022;2023-04-25T02:52:31;9.30;99.90
7814;DHT22;3952;48.364;16.022;2023-04-25T02:54:58;9.30;99.90
7814;DHT22;3952;48.364;16.022;2023-04-25T02:57:25;9.30;99.90
7814;DHT22;3952;48.364;16.022;2023-04-25T02:59:52;9.30;99.90
7814;DHT22;3952;48.364;16.022;2023-04-25T03:02:19;9.30;99.90
7814;DHT22;3952;48.364;16.022;2023-04-25T03:04:48;9.20;99.90
7814;DHT22;3952;48.364;16.022;2023-04-25T03:07:15;9.20;99.90
7814;DHT22;3952;48.364;16.022;2023-04-25T03:09:42;9.20;99.90
7814;DHT22;3952;48.364;16.022;2023-04-25T03:12:10;9.20;99.90
7814;DHT22;3952;48.364;16.022;2023-04-25T03:14:37;9.10;99.90
7814;DHT22;3952;48.364;16.022;2023-04-25T03:17:04;9.10;99.90
7814;DHT22;3952;48.364;16.022;2023-04-25T03:19:31;9.10;99.90
7814;DHT22;3952;48.364;16.022;2023-04-25T03:22:00;9.00;99.90
7814;DHT22;3952;48.364;16.022;2023-04-25T03:24:27;9.00;99.90
7814;DHT22;3952;48.364;16.022;2023-04-25T03:26:54;9.00;99.90
7814;DHT22;3952;48.364;16.022;2023-04-25T03:29:21;8.90;99.90
7814;DHT22;3952;48.364;16.022;2023-04-25T03:31:51;8.90;99.90
7814;DHT22;3952;48.364;16.022;2023-04-25T03:34:18;8.80;99.90
7814;DHT22;3952;48.364;16.022;2023-04-25T03:36:47;8.80;99.90
7814;DHT22;3952;48.364;16.022;2023-04-25T03:39:15;8.70;99.90
7814;DHT22;3952;48.364;16.022;2023-04-25T03:41:43;8.70;99.90
7814;DHT22;3952;48.364;16.022;2023-04-25T03:44:10;8.60;99.90
7814;DHT22;3952;48.364;16.022;2023-04-25T03:46:37;8.60;99.90
7814;DHT22;3952;48.364;16.022;2023-04-25T03:49:04;8.50;99.90
7814;DHT22;3952;48.364;16.022;2023-04-25T03:51:31;8.50;99.90
7814;DHT22;3952;48.364;16.022;2023-04-25T03:53:58;8.40;99.90
7814;DHT22;3952;48.364;16.022;2023-04-25T03:56:27;8.40;99.90
7814;DHT22;3952;48.364;16.022;2023-04-25T03:58:54;8.40;99.90
7814;DHT22;3952;48.364;16.022;2023-04-25T04:01:21;8.30;99.90
7814;DHT22;3952;48.364;16.022;2023-04-25T04:03:49;8.30;99.90
7814;DHT22;3952;48.364;16.022;2023-04-25T04:06:16;8.20;99.90
7814;DHT22;3952;48.364;16.022;2023-04-25T04:08:44;8.10;99.90
7814;DHT22;3952;48.364;16.022;2023-04-25T04:11:12;8.10;99.90
7814;DHT22;3952;48.364;16.022;2023-04-25T04:13:40;8.20;99.90
7814;DHT22;3952;48.364;16.022;2023-04-25T04:16:07;8.20;99.90
7814;DHT22;3952;48.364;16.022;2023-04-25T04:18:35;8.20;99.90
7814;DHT22;3952;48.364;16.022;2023-04-25T04:21:02;8.20;99.90
7814;DHT22;3952;48.364;16.022;2023-04-25T04:23:30;8.20;99.90
7814;DHT22;3952;48.364;16.022;2023-04-25T04:25:57;8.20;99.90
7814;DHT22;3952;48.364;16.022;2023-04-25T04:28:24;8.30;99.90
7814;DHT22;3952;48.364;16.022;2023-04-25T04:30:53;8.30;99.90
7814;DHT22;3952;48.364;16.022;2023-04-25T04:33:21;8.30;99.90
7814;DHT22;3952;48.364;16.022;2023-04-25T04:35:50;8.30;99.90
7814;DHT22;3952;48.364;16.022;2023-04-25T04:38:19;8.30;99.90
7814;DHT22;3952;48.364;16.022;2023-04-25T04:40:47;8.20;99.90
7814;DHT22;3952;48.364;16.022;2023-04-25T04:43:14;8.10;99.90
7814;DHT22;3952;48.364;16.022;2023-04-25T04:45:43;8.00;99.90
7814;DHT22;3952;48.364;16.022;2023-04-25T04:48:11;8.00;99.90
7814;DHT22;3952;48.364;16.022;2023-04-25T04:50:40;7.90;99.90
7814;DHT22;3952;48.364;16.022;2023-04-25T04:53:07;7.80;99.90
7814;DHT22;3952;48.364;16.022;2023-04-25T04:55:35;7.80;99.90
7814;DHT22;3952;48.364;16.022;2023-04-25T04:58:02;7.70;99.90
7814;DHT22;3952;48.364;16.022;2023-04-25T05:00:29;7.70;99.90
7814;DHT22;3952;48.364;16.022;2023-04-25T05:02:56;7.80;99.90
7814;DHT22;3952;48.364;16.022;2023-04-25T05:05:25;7.90;99.90
7814;DHT22;3952;48.364;16.022;2023-04-25T05:07:52;7.90;99.90
7814;DHT22;3952;48.364;16.022;2023-04-25T05:10:20;7.90;99.90
7814;DHT22;3952;48.364;16.022;2023-04-25T05:12:47;8.00;99.90
7814;DHT22;3952;48.364;16.022;2023-04-25T05:15:14;8.00;99.90
7814;DHT22;3952;48.364;16.022;2023-04-25T05:17:41;8.10;99.90
7814;DHT22;3952;48.364;16.022;2023-04-25T05:20:09;8.10;99.90
7814;DHT22;3952;48.364;16.022;2023-04-25T05:22:38;8.20;99.90
7814;DHT22;3952;48.364;16.022;2023-04-25T05:25:08;8.30;99.90
7814;DHT22;3952;48.364;16.022;2023-04-25T05:27:35;8.30;99.90
7814;DHT22;3952;48.364;16.022;2023-04-25T05:30:02;8.40;99.90
7814;DHT22;3952;48.364;16.022;2023-04-25T05:32:30;8.50;99.90
7814;DHT22;3952;48.364;16.022;2023-04-25T05:34:57;8.60;99.90
7814;DHT22;3952;48.364;16.022;2023-04-25T05:37:24;8.70;99.90
7814;DHT22;3952;48.364;16.022;2023-04-25T05:39:53;8.70;99.90
7814;DHT22;3952;48.364;16.022;2023-04-25T05:42:20;8.80;99.90
7814;DHT22;3952;48.364;16.022;2023-04-25T05:44:47;8.90;99.90
7814;DHT22;3952;48.364;16.022;2023-04-25T05:47:15;9.00;99.90
7814;DHT22;3952;48.364;16.022;2023-04-25T05:49:42;9.10;99.90
7814;DHT22;3952;48.364;16.022;2023-04-25T05:52:09;9.20;99.90
7814;DHT22;3952;48.364;16.022;2023-04-25T05:54:36;9.20;99.90
7814;DHT22;3952;48.364;16.022;2023-04-25T05:57:05;9.30;99.90
7814;DHT22;3952;48.364;16.022;2023-04-25T05:59:32;9.50;99.90
7814;DHT22;3952;48.364;16.022;2023-04-25T06:01:59;9.60;99.90
7814;DHT22;3952;48.364;16.022;2023-04-25T06:04:26;9.60;99.90
7814;DHT22;3952;48.364;16.022;2023-04-25T06:06:54;9.80;99.90
7814;DHT22;3952;48.364;16.022;2023-04-25T06:09:21;9.90;99.90
7814;DHT22;3952;48.364;16.022;2023-04-25T06:11:48;10.00;99.90
7814;DHT22;3952;48.364;16.022;2023-04-25T06:14:17;10.10;99.90
7814;DHT22;3952;48.364;16.022;2023-04-25T06:16:44;10.20;99.90
7814;DHT22;3952;48.364;16.022;2023-04-25T06:19:11;10.30;99.90
7814;DHT22;3952;48.364;16.022;2023-04-25T06:21:38;10.40;99.90
7814;DHT22;3952;48.364;16.022;2023-04-25T06:24:05;10.60;99.90
7814;DHT22;3952;48.364;16.022;2023-04-25T06:26:33;10.70;99.90
7814;DHT22;3952;48.364;16.022;2023-04-25T06:29:00;10.90;99.90
7814;DHT22;3952;48.364;16.022;2023-04-25T06:31:28;11.00;99.90
7814;DHT22;3952;48.364;16.022;2023-04-25T06:33:58;11.20;99.90
7814;DHT22;3952;48.364;16.022;2023-04-25T06:36:25;11.30;99.90
7814;DHT22;3952;48.364;16.022;2023-04-25T06:38:53;11.30;99.90
7814;DHT22;3952;48.364;16.022;2023-04-25T06:41:21;11.50;99.90
7814;DHT22;3952;48.364;16.022;2023-04-25T06:43:48;11.60;99.90
7814;DHT22;3952;48.364;16.022;2023-04-25T06:46:15;11.70;99.90
7814;DHT22;3952;48.364;16.022;2023-04-25T06:48:44;12.20;99.90
7814;DHT22;3952;48.364;16.022;2023-04-25T06:51:11;12.00;99.90
7814;DHT22;3952;48.364;16.022;2023-04-25T06:53:39;12.10;99.90
7814;DHT22;3952;48.364;16.022;2023-04-25T06:56:06;12.20;99.90
7814;DHT22;3952;48.364;16.022;2023-04-25T06:58:34;12.40;99.90
7814;DHT22;3952;48.364;16.022;2023-04-25T07:01:01;12.50;99.90
7814;DHT22;3952;48.364;16.022;2023-04-25T07:03:28;12.60;99.90
7814;DHT22;3952;48.364;16.022;2023-04-25T07:05:57;12.70;99.90
7814;DHT22;3952;48.364;16.022;2023-04-25T07:08:24;12.80;99.90
7814;DHT22;3952;48.364;16.022;2023-04-25T07:10:51;12.90;99.90
7814;DHT22;3952;48.364;16.022;2023-04-25T07:13:18;13.00;99.90
7814;DHT22;3952;48.364;16.022;2023-04-25T07:15:46;13.10;99.90
7814;DHT22;3952;48.364;16.022;2023-04-25T07:18:14;13.30;99.90
7814;DHT22;3952;48.364;16.022;2023-04-25T07:20:41;13.40;99.90
7814;DHT22;3952;48.364;16.022;2023-04-25T07:23:10;13.60;99.90
7814;DHT22;3952;48.364;16.022;2023-04-25T07:25:37;13.70;99.90
7814;DHT22;3952;48.364;16.022;2023-04-25T07:28:04;13.70;99.90
7814;DHT22;3952;48.364;16.022;2023-04-25T07:30:32;13.80;99.90
7814;DHT22;3952;48.364;16.022;2023-04-25T07:33:00;14.00;99.90
7814;DHT22;3952;48.364;16.022;2023-04-25T07:35:27;14.10;99.90
7814;DHT22;3952;48.364;16.022;2023-04-25T07:37:54;14.30;99.90
7814;DHT22;3952;48.364;16.022;2023-04-25T07:40:23;14.30;99.90
7814;DHT22;3952;48.364;16.022;2023-04-25T07:42:50;14.40;99.90
7814;DHT22;3952;48.364;16.022;2023-04-25T07:45:17;14.30;99.90
7814;DHT22;3952;48.364;16.022;2023-04-25T07:47:45;14.30;99.90
7814;DHT22;3952;48.364;16.022;2023-04-25T07:50:12;14.40;99.90
7814;DHT22;3952;48.364;16.022;2023-04-25T07:52:39;14.60;99.90
7814;DHT22;3952;48.364;16.022;2023-04-25T07:55:07;14.70;99.90
7814;DHT22;3952;48.364;16.022;2023-04-25T07:57:35;14.80;99.90
7814;DHT22;3952;48.364;16.022;2023-04-25T08:00:05;15.00;99.90
7814;DHT22;3952;48.364;16.022;2023-04-25T08:02:35;15.10;99.90
7814;DHT22;3952;48.364;16.022;2023-04-25T08:05:02;15.20;99.90
7814;DHT22;3952;48.364;16.022;2023-04-25T08:07:30;15.30;99.90
7814;DHT22;3952;48.364;16.022;2023-04-25T08:09:57;15.40;99.90
7814;DHT22;3952;48.364;16.022;2023-04-25T08:12:24;15.20;99.90
7814;DHT22;3952;48.364;16.022;2023-04-25T08:14:53;15.20;99.90
7814;DHT22;3952;48.364;16.022;2023-04-25T08:17:20;15.30;99.90
7814;DHT22;3952;48.364;16.022;2023-04-25T08:19:47;15.30;99.90
7814;DHT22;3952;48.364;16.022;2023-04-25T08:22:14;15.30;99.90
7814;DHT22;3952;48.364;16.022;2023-04-25T08:24:42;15.40;99.90
7814;DHT22;3952;48.364;16.022;2023-04-25T08:27:09;15.40;99.90
7814;DHT22;3952;48.364;16.022;2023-04-25T08:29:36;15.40;99.90
7814;DHT22;3952;48.364;16.022;2023-04-25T08:32:05;15.40;99.90
7814;DHT22;3952;48.364;16.022;2023-04-25T08:34:33;15.40;99.90
7814;DHT22;3952;48.364;16.022;2023-04-25T08:37:00;15.40;99.90
7814;DHT22;3952;48.364;16.022;2023-04-25T08:39:30;15.30;99.90
7814;DHT22;3952;48.364;16.022;2023-04-25T08:41:57;15.30;99.90
7814;DHT22;3952;48.364;16.022;2023-04-25T08:44:26;15.20;99.90
7814;DHT22;3952;48.364;16.022;2023-04-25T08:46:54;15.10;99.90
7814;DHT22;3952;48.364;16.022;2023-04-25T08:49:24;15.00;99.90
7814;DHT22;3952;48.364;16.022;2023-04-25T08:51:53;15.00;99.90
7814;DHT22;3952;48.364;16.022;2023-04-25T08:54:23;15.00;99.90
7814;DHT22;3952;48.364;16.022;2023-04-25T08:56:55;15.00;99.90
7814;DHT22;3952;48.364;16.022;2023-04-25T08:59:23;15.00;99.90
7814;DHT22;3952;48.364;16.022;2023-04-25T09:01:50;15.00;99.90
7814;DHT22;3952;48.364;16.022;2023-04-25T09:04:18;15.00;99.90
7814;DHT22;3952;48.364;16.022;2023-04-25T09:06:47;15.00;99.90
7814;DHT22;3952;48.364;16.022;2023-04-25T09:09:14;15.00;99.90
7814;DHT22;3952;48.364;16.022;2023-04-25T09:11:41;14.90;99.90
7814;DHT22;3952;48.364;16.022;2023-04-25T09:14:13;14.70;99.90
7814;DHT22;3952;48.364;16.022;2023-04-25T09:17:07;14.50;99.90
7814;DHT22;3952;48.364;16.022;2023-04-25T09:19:35;14.20;99.90
7814;DHT22;3952;48.364;16.022;2023-04-25T09:22:07;13.90;99.90
7814;DHT22;3952;48.364;16.022;2023-04-25T09:24:36;13.70;99.90
7814;DHT22;3952;48.364;16.022;2023-04-25T09:27:04;13.60;99.90
7814;DHT22;3952;48.364;16.022;2023-04-25T09:29:33;13.60;99.90
7814;DHT22;3952;48.364;16.022;2023-04-25T09:32:17;13.60;99.90
7814;DHT22;3952;48.364;16.022;2023-04-25T09:34:47;13.70;99.90
7814;DHT22;3952;48.364;16.022;2023-04-25T09:37:20;13.90;99.90
7814;DHT22;3952;48.364;16.022;2023-04-25T09:39:49;14.10;99.90
7814;DHT22;3952;48.364;16.022;2023-04-25T09:42:17;14.30;99.90
7814;DHT22;3952;48.364;16.022;2023-04-25T09:44:45;14.60;99.90
7814;DHT22;3952;48.364;16.022;2023-04-25T09:47:13;14.90;99.90
7814;DHT22;3952;48.364;16.022;2023-04-25T09:49:41;15.20;99.90
7814;DHT22;3952;48.364;16.022;2023-04-25T09:52:10;15.40;99.90
7814;DHT22;3952;48.364;16.022;2023-04-25T09:54:41;15.70;99.90
7814;DHT22;3952;48.364;16.022;2023-04-25T09:57:11;15.90;99.90
7814;DHT22;3952;48.364;16.022;2023-04-25T09:59:43;16.10;99.90
7814;DHT22;3952;48.364;16.022;2023-04-25T10:02:11;16.40;99.90
7814;DHT22;3952;48.364;16.022;2023-04-25T10:04:39;16.60;99.90
7814;DHT22;3952;48.364;16.022;2023-04-25T10:07:08;16.60;99.90
7814;DHT22;3952;48.364;16.022;2023-04-25T10:09:37;16.70;99.90
7814;DHT22;3952;48.364;16.022;2023-04-25T10:12:08;16.80;99.90
7814;DHT22;3952;48.364;16.022;2023-04-25T10:14:35;17.10;99.90
7814;DHT22;3952;48.364;16.022;2023-04-25T10:17:03;17.20;99.90
7814;DHT22;3952;48.364;16.022;2023-04-25T10:19:30;17.30;99.90
7814;DHT22;3952;48.364;16.022;2023-04-25T10:22:05;17.50;99.90
7814;DHT22;3952;48.364;16.022;2023-04-25T10:24:35;17.50;99.90
7814;DHT22;3952;48.364;16.022;2023-04-25T10:27:03;17.60;99.90
7814;DHT22;3952;48.364;16.022;2023-04-25T10:29:32;17.50;99.90
7814;DHT22;3952;48.364;16.022;2023-04-25T10:31:59;17.30;99.90
7814;DHT22;3952;48.364;16.022;2023-04-25T10:34:38;17.20;99.90
7814;DHT22;3952;48.364;16.022;2023-04-25T10:37:08;17.10;99.90
7814;DHT22;3952;48.364;16.022;2023-04-25T10:39:39;16.50;99.90
7814;DHT22;3952;48.364;16.022;2023-04-25T10:42:07;15.70;99.90
7814;DHT22;3952;48.364;16.022;2023-04-25T10:44:37;15.20;99.90
7814;DHT22;3952;48.364;16.022;2023-04-25T10:47:07;14.80;99.90
7814;DHT22;3952;48.364;16.022;2023-04-25T10:49:36;14.50;99.90
7814;DHT22;3952;48.364;16.022;2023-04-25T10:52:18;14.20;99.90
7814;DHT22;3952;48.364;16.022;2023-04-25T10:54:52;14.10;99.90
7814;DHT22;3952;48.364;16.022;2023-04-25T10:57:30;14.00;99.90
7814;DHT22;3952;48.364;16.022;2023-04-25T11:00:07;14.00;99.90
7814;DHT22;3952;48.364;16.022;2023-04-25T11:02:44;14.00;99.90
7814;DHT22;3952;48.364;16.022;2023-04-25T11:05:23;14.10;99.90
7814;DHT22;3952;48.364;16.022;2023-04-25T11:07:54;14.20;99.90
7814;DHT22;3952;48.364;16.022;2023-04-25T11:10:25;14.40;99.90
7814;DHT22;3952;48.364;16.022;2023-04-25T11:12:53;14.50;99.90
7814;DHT22;3952;48.364;16.022;2023-04-25T11:15:21;14.70;99.90
7814;DHT22;3952;48.364;16.022;2023-04-25T11:17:51;15.00;99.90
7814;DHT22;3952;48.364;16.022;2023-04-25T11:20:18;15.20;99.90
7814;DHT22;3952;48.364;16.022;2023-04-25T11:22:47;15.20;99.90
7814;DHT22;3952;48.364;16.022;2023-04-25T11:25:15;15.30;99.90
7814;DHT22;3952;48.364;16.022;2023-04-25T11:27:52;15.30;99.90
7814;DHT22;3952;48.364;16.022;2023-04-25T11:30:23;15.30;99.90
7814;DHT22;3952;48.364;16.022;2023-04-25T11:32:51;15.30;99.90
7814;DHT22;3952;48.364;16.022;2023-04-25T11:35:18;15.40;99.90
7814;DHT22;3952;48.364;16.022;2023-04-25T11:37:48;15.40;99.90
7814;DHT22;3952;48.364;16.022;2023-04-25T11:40:16;15.70;99.90
7814;DHT22;3952;48.364;16.022;2023-04-25T11:42:44;16.00;99.90
7814;DHT22;3952;48.364;16.022;2023-04-25T11:45:12;16.00;99.90
7814;DHT22;3952;48.364;16.022;2023-04-25T11:47:41;15.80;99.90
7814;DHT22;3952;48.364;16.022;2023-04-25T11:50:09;15.50;99.90
7814;DHT22;3952;48.364;16.022;2023-04-25T11:52:38;15.30;99.90
7814;DHT22;3952;48.364;16.022;2023-04-25T11:55:07;15.10;99.90
7814;DHT22;3952;48.364;16.022;2023-04-25T11:57:34;15.00;99.90
7814;DHT22;3952;48.364;16.022;2023-04-25T12:00:07;14.90;99.90
7814;DHT22;3952;48.364;16.022;2023-04-25T12:02:36;14.90;99.90
7814;DHT22;3952;48.364;16.022;2023-04-25T12:05:08;15.00;99.90
7814;DHT22;3952;48.364;16.022;2023-04-25T12:07:36;15.20;99.90
7814;DHT22;3952;48.364;16.022;2023-04-25T12:10:09;16.40;99.90
7814;DHT22;3952;48.364;16.022;2023-04-25T12:12:38;15.70;99.90
7814;DHT22;3952;48.364;16.022;2023-04-25T12:15:09;15.80;99.90
7814;DHT22;3952;48.364;16.022;2023-04-25T12:17:38;15.50;99.90
7814;DHT22;3952;48.364;16.022;2023-04-25T12:20:13;15.00;99.90
7814;DHT22;3952;48.364;16.022;2023-04-25T12:22:41;14.70;99.90
7814;DHT22;3952;48.364;16.022;2023-04-25T12:25:11;14.50;99.90
7814;DHT22;3952;48.364;16.022;2023-04-25T12:27:38;14.40;99.90
7814;DHT22;3952;48.364;16.022;2023-04-25T12:30:08;14.40;99.90
7814;DHT22;3952;48.364;16.022;2023-04-25T12:32:37;14.30;99.90
7814;DHT22;3952;48.364;16.022;2023-04-25T12:35:05;14.30;99.90
7814;DHT22;3952;48.364;16.022;2023-04-25T12:37:34;14.40;99.90
7814;DHT22;3952;48.364;16.022;2023-04-25T12:40:02;14.60;99.90
7814;DHT22;3952;48.364;16.022;2023-04-25T12:42:30;14.90;99.90
7814;DHT22;3952;48.364;16.022;2023-04-25T12:44:57;15.20;99.90
7814;DHT22;3952;48.364;16.022;2023-04-25T12:47:24;15.50;99.90
7814;DHT22;3952;48.364;16.022;2023-04-25T12:49:52;15.70;99.90
7814;DHT22;3952;48.364;16.022;2023-04-25T12:52:19;15.60;99.90
7814;DHT22;3952;48.364;16.022;2023-04-25T12:54:47;15.50;99.90
7814;DHT22;3952;48.364;16.022;2023-04-25T12:57:15;15.50;99.90
7814;DHT22;3952;48.364;16.022;2023-04-25T12:59:42;15.60;99.90
7814;DHT22;3952;48.364;16.022;2023-04-25T13:02:09;15.80;99.90
7814;DHT22;3952;48.364;16.022;2023-04-25T13:04:36;16.00;99.90
7814;DHT22;3952;48.364;16.022;2023-04-25T13:07:03;16.20;99.90
7814;DHT22;3952;48.364;16.022;2023-04-25T13:09:31;16.20;99.90
7814;DHT22;3952;48.364;16.022;2023-04-25T13:11:59;16.40;99.90
7814;DHT22;3952;48.364;16.022;2023-04-25T13:14:27;16.50;99.90
7814;DHT22;3952;48.364;16.022;2023-04-25T13:16:54;16.50;99.90
7814;DHT22;3952;48.364;16.022;2023-04-25T13:19:21;16.40;99.90
7814;DHT22;3952;48.364;16.022;2023-04-25T13:21:49;16.40;99.90
7814;DHT22;3952;48.364;16.022;2023-04-25T13:24:16;16.30;99.90
7814;DHT22;3952;48.364;16.022;2023-04-25T13:26:43;16.10;99.90
7814;DHT22;3952;48.364;16.022;2023-04-25T13:29:12;15.90;99.90
7814;DHT22;3952;48.364;16.022;2023-04-25T13:31:39;15.60;99.90
7814;DHT22;3952;48.364;16.022;2023-04-25T13:34:06;15.40;99.90
7814;DHT22;3952;48.364;16.022;2023-04-25T13:36:33;15.10;99.90
7814;DHT22;3952;48.364;16.022;2023-04-25T13:39:01;14.80;99.90
7814;DHT22;3952;48.364;16.022;2023-04-25T13:41:29;14.50;99.90
7814;DHT22;3952;48.364;16.022;2023-04-25T13:43:56;14.10;99.90
7814;DHT22;3952;48.364;16.022;2023-04-25T13:46:25;13.70;99.90
7814;DHT22;3952;48.364;16.022;2023-04-25T13:48:52;13.30;99.90
7814;DHT22;3952;48.364;16.022;2023-04-25T13:51:19;13.10;99.90
7814;DHT22;3952;48.364;16.022;2023-04-25T13:53:47;12.80;99.90
7814;DHT22;3952;48.364;16.022;2023-04-25T13:56:14;12.70;99.90
7814;DHT22;3952;48.364;16.022;2023-04-25T13:58:41;12.60;99.90
7814;DHT22;3952;48.364;16.022;2023-04-25T14:01:08;12.70;99.90
7814;DHT22;3952;48.364;16.022;2023-04-25T14:03:37;12.70;99.90
7814;DHT22;3952;48.364;16.022;2023-04-25T14:06:04;12.90;99.90
7814;DHT22;3952;48.364;16.022;2023-04-25T14:08:31;13.00;99.90
7814;DHT22;3952;48.364;16.022;2023-04-25T14:10:59;13.10;99.90
7814;DHT22;3952;48.364;16.022;2023-04-25T14:13:26;13.00;99.90
7814;DHT22;3952;48.364;16.022;2023-04-25T14:15:53;12.90;99.90
7814;DHT22;3952;48.364;16.022;2023-04-25T14:18:20;12.90;99.90
7814;DHT22;3952;48.364;16.022;2023-04-25T14:20:49;12.80;99.90
7814;DHT22;3952;48.364;16.022;2023-04-25T14:23:16;12.70;99.90
7814;DHT22;3952;48.364;16.022;2023-04-25T14:25:44;12.80;99.90
7814;DHT22;3952;48.364;16.022;2023-04-25T14:28:11;12.70;99.90
7814;DHT22;3952;48.364;16.022;2023-04-25T14:30:38;12.70;99.90
7814;DHT22;3952;48.364;16.022;2023-04-25T14:33:05;12.70;99.90
7814;DHT22;3952;48.364;16.022;2023-04-25T14:35:33;12.70;99.90
7814;DHT22;3952;48.364;16.022;2023-04-25T14:38:01;12.80;99.90
7814;DHT22;3952;48.364;16.022;2023-04-25T14:40:29;12.90;99.90
7814;DHT22;3952;48.364;16.022;2023-04-25T14:42:56;13.00;99.90
7814;DHT22;3952;48.364;16.022;2023-04-25T14:45:23;12.90;99.90
7814;DHT22;3952;48.364;16.022;2023-04-25T14:47:51;12.80;99.90
7814;DHT22;3952;48.364;16.022;2023-04-25T14:50:18;12.70;99.90
7814;DHT22;3952;48.364;16.022;2023-04-25T14:52:45;12.70;99.90
7814;DHT22;3952;48.364;16.022;2023-04-25T14:55:14;12.80;99.90
7814;DHT22;3952;48.364;16.022;2023-04-25T14:57:41;12.80;99.90
7814;DHT22;3952;48.364;16.022;2023-04-25T15:00:09;12.80;99.90
7814;DHT22;3952;48.364;16.022;2023-04-25T15:02:39;12.80;99.90
7814;DHT22;3952;48.364;16.022;2023-04-25T15:05:07;12.80;99.90
7814;DHT22;3952;48.364;16.022;2023-04-25T15:07:35;12.70;99.90
7814;DHT22;3952;48.364;16.022;2023-04-25T15:10:03;12.60;99.90
7814;DHT22;3952;48.364;16.022;2023-04-25T15:12:32;12.60;99.90
7814;DHT22;3952;48.364;16.022;2023-04-25T15:14:59;12.60;99.90
7814;DHT22;3952;48.364;16.022;2023-04-25T15:17:27;12.60;99.90
7814;DHT22;3952;48.364;16.022;2023-04-25T15:19:56;12.20;99.90
7814;DHT22;3952;48.364;16.022;2023-04-25T15:22:23;12.60;99.90
7814;DHT22;3952;48.364;16.022;2023-04-25T15:24:51;12.70;99.90
7814;DHT22;3952;48.364;16.022;2023-04-25T15:27:18;12.80;99.90
7814;DHT22;3952;48.364;16.022;2023-04-25T15:29:46;12.80;99.90
7814;DHT22;3952;48.364;16.022;2023-04-25T15:32:14;12.90;99.90
7814;DHT22;3952;48.364;16.022;2023-04-25T15:34:42;12.90;99.90
7814;DHT22;3952;48.364;16.022;2023-04-25T15:37:09;13.00;99.90
7814;DHT22;3952;48.364;16.022;2023-04-25T15:39:37;13.00;99.90
7814;DHT22;3952;48.364;16.022;2023-04-25T15:42:04;13.10;99.90
7814;DHT22;3952;48.364;16.022;2023-04-25T15:44:31;13.10;99.90
7814;DHT22;3952;48.364;16.022;2023-04-25T15:47:00;13.10;99.90
7814;DHT22;3952;48.364;16.022;2023-04-25T15:49:27;13.20;99.90
7814;DHT22;3952;48.364;16.022;2023-04-25T15:51:55;13.40;99.90
7814;DHT22;3952;48.364;16.022;2023-04-25T15:54:24;13.40;99.90
7814;DHT22;3952;48.364;16.022;2023-04-25T15:56:51;13.30;99.90